Time;durP1;ratioP1;P1;durP2;ratioP2;P2;SDS_P1;SDS_P2;PMS_P1;PMS_P2;Temp;Humidity;BMP_temperature;BMP_pressure;BME280_temperature;BME280_humidity;BME280_pressure;Samples;Min_cycle;Max_cycle;Signal;HPM_P1;HPM_P2
2022/05/19 00:03:25;;;;;;;5.30;4.45;;;17.20;78.60;;;;;;4974473;28;20034;-74
2022/05/19 00:05:51;;;;;;;6.30;4.75;;;17.10;78.80;;;;;;4969934;28;20042;-74
2022/05/19 00:08:17;;;;;;;5.57;5.05;;;17.10;78.80;;;;;;4970382;28;20666;-74
2022/05/19 00:10:44;;;;;;;6.28;5.22;;;17.10;79.00;;;;;;4958841;28;20616;-74
2022/05/19 00:13:10;;;;;;;7.38;5.07;;;17.10;79.00;;;;;;4976375;28;20043;-74
2022/05/19 00:15:35;;;;;;;5.35;4.85;;;17.10;79.30;;;;;;4977024;28;20030;-74
2022/05/19 00:18:01;;;;;;;5.03;4.47;;;17.00;79.20;;;;;;4961809;28;20113;-74
2022/05/19 00:20:27;;;;;;;5.35;4.78;;;17.00;79.40;;;;;;4973806;28;20055;-74
2022/05/19 00:22:54;;;;;;;5.55;4.97;;;17.00;79.50;;;;;;4973597;28;20032;-74
2022/05/19 00:25:20;;;;;;;5.78;4.57;;;17.00;79.40;;;;;;4972860;28;20046;-74
2022/05/19 00:27:46;;;;;;;5.40;4.90;;;17.00;79.60;;;;;;4976647;28;20082;-73
2022/05/19 00:30:12;;;;;;;7.00;5.10;;;16.90;79.70;;;;;;4974457;28;20479;-74
2022/05/19 00:32:38;;;;;;;6.30;4.90;;;16.90;79.70;;;;;;4970231;28;20038;-73
2022/05/19 00:35:04;;;;;;;7.47;5.15;;;16.90;79.90;;;;;;4980665;28;20080;-74
2022/05/19 00:37:30;;;;;;;5.10;4.60;;;16.90;79.90;;;;;;4974365;28;20034;-74
2022/05/19 00:39:56;;;;;;;6.13;4.82;;;16.80;80.00;;;;;;4972879;28;20041;-74
2022/05/19 00:45:25;;;;;;;5.30;4.75;;;16.80;81.20;;;;;;4931082;29;20047;-74
2022/05/19 00:48:17;;;;;;;7.30;5.10;;;16.70;80.70;;;;;;4965053;28;20105;-74
2022/05/19 00:51:15;;;;;;;7.25;5.10;;;16.70;80.60;;;;;;4966756;28;20042;-74
2022/05/19 00:53:51;;;;;;;5.53;5.03;;;16.70;80.90;;;;;;4953431;28;20069;-74
2022/05/19 00:56:27;;;;;;;5.30;4.55;;;16.60;81.10;;;;;;4975090;28;20034;-74
2022/05/19 00:59:07;;;;;;;5.10;4.60;;;16.60;81.10;;;;;;4973641;28;20066;-74
2022/05/19 01:01:34;;;;;;;6.22;5.00;;;16.60;81.10;;;;;;4976514;28;20092;-74
2022/05/19 01:04:09;;;;;;;7.28;5.18;;;16.60;81.60;;;;;;4976117;28;20038;-74
2022/05/19 01:06:36;;;;;;;7.60;4.80;;;16.60;81.80;;;;;;4967186;28;20129;-74
2022/05/19 01:09:08;;;;;;;5.93;5.32;;;16.50;81.60;;;;;;4968405;28;20035;-74
2022/05/19 01:11:36;;;;;;;5.68;5.15;;;16.50;81.50;;;;;;4974875;28;20137;-74
2022/05/19 01:14:02;;;;;;;5.85;5.25;;;16.50;81.80;;;;;;4957471;28;20495;-74
2022/05/19 01:16:28;;;;;;;5.70;4.82;;;16.40;81.80;;;;;;4976466;28;20037;-73
2022/05/19 01:18:55;;;;;;;5.90;4.88;;;16.40;81.80;;;;;;4975983;28;20560;-74
2022/05/19 01:21:22;;;;;;;5.95;5.35;;;16.40;82.00;;;;;;4973098;28;20051;-74
2022/05/19 01:24:12;;;;;;;6.05;5.25;;;16.40;82.10;;;;;;4967531;28;20043;-74
2022/05/19 01:26:45;;;;;;;6.53;5.03;;;16.30;82.20;;;;;;4969696;28;20912;-74
2022/05/19 01:29:14;;;;;;;8.55;5.35;;;16.30;82.30;;;;;;4959050;28;20035;-74
2022/05/19 01:31:53;;;;;;;6.28;5.43;;;16.30;82.60;;;;;;4975651;28;20113;-74
2022/05/19 01:34:22;;;;;;;5.55;4.97;;;16.20;82.70;;;;;;4978163;28;20518;-74
2022/05/19 01:36:48;;;;;;;6.82;4.90;;;16.20;82.90;;;;;;4973954;28;20073;-74
2022/05/19 01:39:18;;;;;;;8.40;5.18;;;16.20;82.60;;;;;;4959200;28;20105;-74
2022/05/19 01:42:18;;;;;;;5.68;5.05;;;16.20;82.70;;;;;;4950768;28;20471;-74
2022/05/19 01:44:49;;;;;;;5.40;4.90;;;16.10;82.80;;;;;;4974814;28;20050;-74
2022/05/19 01:47:20;;;;;;;6.38;4.93;;;16.20;83.00;;;;;;4974988;28;20890;-74
2022/05/19 01:49:51;;;;;;;7.72;5.28;;;16.10;83.30;;;;;;4972992;28;20117;-74
2022/05/19 01:52:31;;;;;;;5.38;4.75;;;16.10;83.30;;;;;;4980078;28;20030;-74
2022/05/19 01:55:09;;;;;;;6.45;4.82;;;16.00;83.50;;;;;;4970648;28;20542;-74
2022/05/19 01:57:46;;;;;;;5.90;5.07;;;15.90;83.50;;;;;;4969429;28;20042;-74
2022/05/19 02:00:23;;;;;;;7.88;5.28;;;15.90;83.70;;;;;;4970790;28;20043;-74
2022/05/19 02:03:24;;;;;;;6.53;5.18;;;15.90;84.10;;;;;;4964195;28;20031;-74
2022/05/19 02:05:59;;;;;;;7.72;5.38;;;15.80;84.10;;;;;;4971025;28;20534;-74
2022/05/19 02:08:37;;;;;;;7.63;5.63;;;15.80;84.30;;;;;;4969737;28;20030;-74
2022/05/19 02:11:09;;;;;;;6.63;5.50;;;15.70;84.20;;;;;;4979822;28;20398;-74
2022/05/19 02:13:35;;;;;;;6.88;5.43;;;15.70;84.40;;;;;;4972979;28;20164;-74
2022/05/19 02:16:05;;;;;;;5.68;5.07;;;15.70;85.00;;;;;;4972009;28;20113;-74
2022/05/19 02:18:31;;;;;;;6.00;5.40;;;15.70;84.40;;;;;;4973503;28;20046;-74
2022/05/19 02:21:00;;;;;;;7.63;4.82;;;15.60;84.80;;;;;;4973973;28;20086;-74
2022/05/19 02:23:26;;;;;;;9.40;6.05;;;15.60;84.40;;;;;;4969002;28;20045;-74
2022/05/19 02:25:53;;;;;;;6.20;5.05;;;15.60;84.40;;;;;;4974892;28;20034;-74
2022/05/19 02:28:32;;;;;;;5.28;4.78;;;15.60;84.80;;;;;;4962493;28;20062;-74
2022/05/19 02:30:59;;;;;;;7.10;5.15;;;15.60;84.90;;;;;;4974355;28;20027;-74
2022/05/19 02:33:27;;;;;;;5.78;5.07;;;15.60;85.00;;;;;;4976779;28;20029;-74
2022/05/19 02:35:53;;;;;;;5.90;5.07;;;15.60;84.70;;;;;;4963102;28;20037;-74
2022/05/19 02:38:20;;;;;;;7.18;4.72;;;15.60;84.40;;;;;;4977011;28;20038;-74
2022/05/19 02:40:47;;;;;;;6.70;5.07;;;15.50;84.50;;;;;;4980927;28;20045;-74
2022/05/19 02:43:14;;;;;;;6.43;5.03;;;15.50;84.40;;;;;;4963035;28;20034;-74
2022/05/19 02:45:40;;;;;;;5.50;4.88;;;15.50;84.40;;;;;;4982792;28;20031;-73
2022/05/19 02:48:07;;;;;;;6.72;5.28;;;15.50;84.30;;;;;;4977053;28;20033;-74
2022/05/19 02:50:34;;;;;;;6.75;4.88;;;15.50;84.20;;;;;;4962082;28;20029;-74
2022/05/19 02:52:59;;;;;;;7.22;4.60;;;15.50;84.40;;;;;;4977636;28;20022;-74
2022/05/19 02:55:26;;;;;;;5.68;4.72;;;15.50;84.40;;;;;;4977490;28;20042;-74
2022/05/19 02:57:51;;;;;;;6.15;4.88;;;15.50;83.90;;;;;;4974547;28;20049;-74
2022/05/19 03:00:24;;;;;;;6.32;4.80;;;15.50;83.80;;;;;;4966092;28;20088;-74
2022/05/19 03:02:51;;;;;;;7.80;5.28;;;15.50;84.00;;;;;;4983211;28;20104;-74
2022/05/19 03:05:20;;;;;;;7.05;4.85;;;15.50;84.10;;;;;;4976757;28;20042;-74
2022/05/19 03:07:47;;;;;;;5.47;4.97;;;15.50;83.90;;;;;;4972499;28;20030;-74
2022/05/19 03:10:14;;;;;;;6.47;4.97;;;15.50;83.40;;;;;;4981187;28;20034;-74
2022/05/19 03:12:40;;;;;;;4.95;4.55;;;15.50;83.20;;;;;;4958806;28;20138;-74
2022/05/19 03:15:07;;;;;;;6.93;5.28;;;15.60;83.10;;;;;;4975794;28;20118;-74
2022/05/19 03:17:34;;;;;;;7.55;4.63;;;15.60;83.10;;;;;;4982270;28;20347;-74
2022/05/19 03:20:01;;;;;;;8.82;4.88;;;15.60;83.40;;;;;;4977087;28;20033;-74
2022/05/19 03:22:27;;;;;;;6.03;5.00;;;15.60;83.20;;;;;;4978852;28;20125;-74
2022/05/19 03:24:53;;;;;;;5.47;4.43;;;15.70;82.90;;;;;;4983212;28;20030;-74
2022/05/19 03:27:20;;;;;;;5.97;4.35;;;15.70;83.30;;;;;;4978658;28;20153;-74
2022/05/19 03:29:50;;;;;;;9.52;5.43;;;15.70;82.90;;;;;;4972616;28;20838;-74
2022/05/19 03:32:17;;;;;;;6.18;4.70;;;15.70;82.40;;;;;;4975886;28;20038;-74
2022/05/19 03:34:42;;;;;;;4.97;4.50;;;15.80;81.80;;;;;;4962090;28;20022;-74
2022/05/19 03:37:11;;;;;;;5.82;5.18;;;15.90;81.30;;;;;;4977442;28;20061;-74
2022/05/19 03:39:37;;;;;;;6.35;4.82;;;15.80;81.30;;;;;;4979372;28;20030;-74
2022/05/19 03:42:05;;;;;;;5.10;4.57;;;15.90;81.30;;;;;;4975092;28;20040;-74
2022/05/19 03:44:31;;;;;;;4.78;4.03;;;15.90;81.30;;;;;;4976308;28;20038;-74
2022/05/19 03:46:57;;;;;;;5.40;4.88;;;15.90;81.20;;;;;;4958115;28;20401;-74
2022/05/19 03:49:22;;;;;;;4.82;4.40;;;15.90;80.90;;;;;;4980477;28;20027;-74
2022/05/19 03:51:48;;;;;;;5.05;4.55;;;16.00;80.50;;;;;;4979746;28;20026;-74
2022/05/19 03:54:14;;;;;;;5.22;4.72;;;16.00;80.60;;;;;;4976993;28;20034;-73
2022/05/19 03:56:40;;;;;;;5.68;4.53;;;16.00;80.60;;;;;;4975906;28;20031;-73
2022/05/19 03:59:06;;;;;;;8.15;4.90;;;15.90;80.70;;;;;;4971657;28;20043;-73
2022/05/19 04:01:32;;;;;;;11.18;5.63;;;16.00;80.50;;;;;;4980855;28;20076;-74
2022/05/19 04:03:59;;;;;;;5.88;4.50;;;16.00;80.50;;;;;;4977243;28;20031;-74
2022/05/19 04:06:28;;;;;;;7.88;4.97;;;16.00;80.40;;;;;;4957771;28;20037;-74
2022/05/19 04:08:54;;;;;;;6.97;4.68;;;16.00;80.40;;;;;;4960900;28;20030;-74
2022/05/19 04:11:19;;;;;;;7.85;4.70;;;16.00;80.50;;;;;;4980462;28;20113;-74
2022/05/19 04:13:45;;;;;;;8.80;5.28;;;16.10;80.00;;;;;;4975000;28;20561;-74
2022/05/19 04:16:11;;;;;;;4.90;4.40;;;16.10;80.30;;;;;;4952766;28;20863;-74
2022/05/19 04:18:37;;;;;;;5.40;4.70;;;16.10;80.80;;;;;;4969914;28;20034;-74
2022/05/19 04:21:04;;;;;;;6.35;4.40;;;16.10;80.60;;;;;;4979986;28;20397;-74
2022/05/19 04:23:30;;;;;;;6.43;4.70;;;16.20;80.90;;;;;;4977178;28;20074;-74
2022/05/19 04:25:56;;;;;;;7.35;4.65;;;16.20;80.60;;;;;;4976671;28;20058;-74
2022/05/19 04:28:23;;;;;;;5.90;4.32;;;16.30;80.10;;;;;;4974714;28;20139;-74
2022/05/19 04:30:50;;;;;;;6.68;4.78;;;16.30;80.10;;;;;;4958544;28;20034;-74
2022/05/19 04:33:16;;;;;;;6.20;4.40;;;16.40;79.80;;;;;;4971862;28;20045;-74
2022/05/19 04:35:42;;;;;;;8.73;4.40;;;16.50;79.70;;;;;;4978255;28;20109;-74
2022/05/19 04:38:10;;;;;;;4.60;4.10;;;16.50;79.30;;;;;;4981792;28;20462;-74
2022/05/19 04:40:38;;;;;;;6.72;4.30;;;16.50;79.30;;;;;;4959346;28;20081;-73
2022/05/19 04:43:04;;;;;;;5.28;4.38;;;16.60;78.40;;;;;;4960700;28;20022;-74
2022/05/19 04:45:31;;;;;;;4.60;4.20;;;16.70;78.30;;;;;;4974941;28;21011;-74
2022/05/19 04:47:56;;;;;;;4.85;4.32;;;16.70;77.80;;;;;;4967570;28;20392;-74
2022/05/19 04:50:22;;;;;;;6.97;4.82;;;16.90;77.90;;;;;;4973476;28;20037;-74
2022/05/19 04:52:49;;;;;;;7.93;4.80;;;17.00;76.00;;;;;;4972146;28;20030;-74
2022/05/19 04:55:15;;;;;;;6.15;4.35;;;17.10;75.00;;;;;;4980057;28;20197;-74
2022/05/19 04:57:42;;;;;;;5.63;4.50;;;17.20;74.80;;;;;;4973752;28;20521;-74
2022/05/19 05:00:10;;;;;;;6.07;4.68;;;17.30;74.80;;;;;;4980698;28;20030;-74
2022/05/19 05:02:36;;;;;;;6.35;4.07;;;17.40;74.50;;;;;;4977526;28;20089;-74
2022/05/19 05:05:04;;;;;;;5.22;4.30;;;17.60;73.50;;;;;;4951458;28;20399;-74
2022/05/19 05:07:29;;;;;;;5.28;3.95;;;17.70;72.80;;;;;;4973082;28;20035;-74
2022/05/19 05:09:55;;;;;;;5.90;4.70;;;17.80;72.70;;;;;;4976253;28;20029;-74
2022/05/19 05:12:21;;;;;;;6.40;4.15;;;17.90;71.70;;;;;;4977610;28;20039;-74
2022/05/19 05:14:47;;;;;;;5.15;4.40;;;18.00;71.70;;;;;;4975039;28;20031;-74
2022/05/19 05:17:13;;;;;;;5.05;4.07;;;18.00;71.00;;;;;;4980226;28;20486;-74
2022/05/19 05:19:38;;;;;;;7.20;4.47;;;18.10;71.10;;;;;;4976001;28;20034;-74
2022/05/19 05:22:04;;;;;;;4.85;4.30;;;18.30;70.60;;;;;;4971771;28;20043;-74
2022/05/19 05:24:31;;;;;;;7.05;3.72;;;18.40;69.80;;;;;;4979073;28;20026;-75
2022/05/19 05:26:57;;;;;;;8.80;4.57;;;18.40;69.40;;;;;;4963917;28;20085;-73
2022/05/19 05:29:23;;;;;;;5.10;4.57;;;18.50;69.60;;;;;;4972032;28;20042;-73
2022/05/19 05:31:49;;;;;;;5.57;3.95;;;18.60;69.60;;;;;;4978173;28;20022;-73
2022/05/19 05:34:15;;;;;;;5.60;3.90;;;18.70;69.50;;;;;;4954225;28;20054;-73
2022/05/19 05:36:40;;;;;;;9.45;4.43;;;18.80;68.50;;;;;;4977347;28;20093;-76
2022/05/19 05:39:06;;;;;;;5.93;4.28;;;18.80;68.40;;;;;;4974976;28;20045;-73
2022/05/19 05:41:32;;;;;;;7.65;3.80;;;18.90;68.50;;;;;;4963568;28;20037;-73
2022/05/19 05:43:57;;;;;;;5.78;4.07;;;19.00;69.10;;;;;;4960824;28;20037;-73
2022/05/19 05:46:23;;;;;;;8.77;4.10;;;19.10;68.80;;;;;;4980110;28;20044;-75
2022/05/19 05:48:49;;;;;;;5.78;3.80;;;19.30;67.30;;;;;;4968163;28;20035;-74
2022/05/19 05:51:16;;;;;;;8.07;4.07;;;19.30;67.20;;;;;;4962734;28;20564;-74
2022/05/19 05:53:44;;;;;;;5.65;3.60;;;19.30;66.80;;;;;;4981313;28;20037;-77
2022/05/19 05:56:13;;;;;;;5.88;3.67;;;19.40;66.90;;;;;;4958221;28;20054;-73
2022/05/19 05:58:39;;;;;;;4.53;3.38;;;19.50;66.80;;;;;;4975469;28;20092;-73
2022/05/19 06:01:10;;;;;;;6.07;3.80;;;19.60;67.10;;;;;;4983047;28;20112;-73
2022/05/19 06:03:36;;;;;;;7.03;3.95;;;19.90;65.50;;;;;;4976648;28;20129;-73
2022/05/19 06:06:03;;;;;;;8.77;3.63;;;20.00;65.30;;;;;;4966269;28;20035;-73
2022/05/19 06:08:31;;;;;;;4.25;3.72;;;20.00;65.30;;;;;;4979982;28;20108;-71
2022/05/19 06:10:57;;;;;;;6.18;3.50;;;20.00;64.80;;;;;;4968670;28;20034;-73
2022/05/19 06:13:24;;;;;;;4.97;3.05;;;20.00;65.50;;;;;;4964042;28;20026;-71
2022/05/19 06:15:49;;;;;;;7.10;3.40;;;20.10;65.30;;;;;;4979037;28;20033;-72
2022/05/19 06:18:15;;;;;;;10.27;3.45;;;20.10;65.60;;;;;;4982309;28;20035;-73
2022/05/19 06:20:44;;;;;;;3.63;3.15;;;20.20;64.60;;;;;;4979936;28;20506;-72
2022/05/19 06:23:11;;;;;;;6.25;3.70;;;20.20;64.90;;;;;;4983041;28;20042;-72
2022/05/19 06:25:37;;;;;;;5.03;3.25;;;20.30;65.00;;;;;;4979729;28;20027;-72
2022/05/19 06:28:03;;;;;;;3.97;3.58;;;20.50;64.60;;;;;;4975774;28;20475;-72
2022/05/19 06:30:30;;;;;;;5.15;3.50;;;20.70;64.70;;;;;;4981549;28;20416;-72
2022/05/19 06:32:56;;;;;;;9.55;3.45;;;20.80;62.40;;;;;;4981915;28;20099;-73
2022/05/19 06:35:25;;;;;;;6.57;3.50;;;21.00;62.20;;;;;;4981215;28;20562;-73
2022/05/19 06:37:51;;;;;;;8.95;3.40;;;20.80;62.70;;;;;;4975566;28;20035;-73
2022/05/19 06:40:18;;;;;;;6.90;3.30;;;20.90;64.00;;;;;;4976256;28;20148;-73
2022/05/19 06:42:45;;;;;;;5.60;3.35;;;21.10;63.60;;;;;;4984342;28;20058;-75
2022/05/19 06:45:16;;;;;;;5.93;3.35;;;21.20;62.40;;;;;;4983553;28;20551;-73
2022/05/19 06:47:44;;;;;;;5.78;3.70;;;21.40;61.80;;;;;;4978861;28;20493;-74
2022/05/19 06:50:12;;;;;;;6.95;3.38;;;21.50;61.20;;;;;;4980424;28;20066;-75
2022/05/19 06:52:51;;;;;;;4.88;3.08;;;21.50;61.20;;;;;;4980192;28;20034;-77
2022/05/19 06:55:18;;;;;;;7.72;3.10;;;21.60;61.60;;;;;;4974437;28;20031;-73
2022/05/19 06:57:44;;;;;;;5.03;3.30;;;21.70;61.10;;;;;;4978886;28;20046;-73
2022/05/19 07:00:13;;;;;;;4.82;3.22;;;21.70;60.70;;;;;;4978113;28;20782;-74
2022/05/19 07:02:48;;;;;;;7.22;5.18;;;21.70;61.70;;;;;;4977776;28;20094;-74
2022/05/19 07:05:16;;;;;;;7.10;2.83;;;21.70;61.60;;;;;;4976753;28;20435;-74
2022/05/19 07:07:43;;;;;;;8.30;3.95;;;21.80;61.40;;;;;;4959272;28;20033;-74
2022/05/19 07:10:09;;;;;;;4.55;2.78;;;22.00;60.60;;;;;;4962598;28;20042;-72
2022/05/19 07:12:37;;;;;;;2.95;2.65;;;21.90;60.30;;;;;;4979389;28;20050;-73
2022/05/19 07:15:03;;;;;;;5.22;3.40;;;21.90;60.40;;;;;;4976527;28;20168;-73
2022/05/19 07:17:29;;;;;;;12.00;3.17;;;22.00;60.10;;;;;;4979209;28;20038;-73
2022/05/19 07:22:39;;;;;;;3.85;3.00;;;22.10;60.00;;;;;;4958605;28;20498;-73
2022/05/19 07:25:08;;;;;;;4.18;2.78;;;22.30;60.30;;;;;;4972634;28;20042;-73
2022/05/19 07:27:35;;;;;;;5.15;2.95;;;22.40;59.70;;;;;;4976670;28;20093;-73
2022/05/19 07:30:03;;;;;;;5.78;3.50;;;22.60;59.60;;;;;;4973849;28;20502;-73
2022/05/19 07:32:29;;;;;;;6.50;3.00;;;22.70;59.80;;;;;;4965380;28;20446;-74
2022/05/19 07:34:57;;;;;;;4.90;2.90;;;22.90;59.70;;;;;;4980864;28;20037;-74
2022/05/19 07:37:24;;;;;;;6.03;3.40;;;23.10;60.20;;;;;;4972555;28;20063;-74
2022/05/19 07:39:52;;;;;;;5.05;3.08;;;23.10;58.90;;;;;;4977302;28;20030;-74
2022/05/19 07:42:18;;;;;;;5.35;3.25;;;23.20;58.20;;;;;;4975990;28;20173;-74
2022/05/19 07:44:44;;;;;;;6.85;3.33;;;23.20;57.70;;;;;;4982075;28;20034;-74
2022/05/19 07:47:10;;;;;;;4.75;3.22;;;23.20;58.00;;;;;;4979057;28;20119;-73
2022/05/19 07:49:36;;;;;;;5.65;2.88;;;23.20;57.50;;;;;;4982019;28;20022;-74
2022/05/19 07:52:04;;;;;;;2.90;2.60;;;23.20;57.60;;;;;;4979396;28;20077;-75
2022/05/19 07:54:31;;;;;;;3.13;2.80;;;23.20;57.90;;;;;;4970194;28;20066;-75
2022/05/19 07:56:57;;;;;;;5.10;3.05;;;23.20;58.00;;;;;;4969052;28;20062;-75
2022/05/19 07:59:23;;;;;;;4.35;2.97;;;23.10;58.10;;;;;;4977801;28;20564;-74
2022/05/19 08:01:50;;;;;;;4.18;2.80;;;23.20;58.60;;;;;;4979854;28;20075;-74
2022/05/19 08:04:17;;;;;;;3.13;2.67;;;23.30;57.90;;;;;;4981458;28;20097;-75
2022/05/19 08:06:43;;;;;;;3.53;2.72;;;23.30;58.00;;;;;;4975912;28;20080;-75
2022/05/19 08:11:54;;;;;;;6.88;3.00;;;23.70;57.80;;;;;;4978608;28;20030;-74
2022/05/19 08:17:08;;;;;;;3.33;2.75;;;24.00;56.60;;;;;;4972535;28;20026;-72
2022/05/19 08:19:34;;;;;;;4.30;2.60;;;24.00;56.70;;;;;;4975420;28;20484;-72
2022/05/19 08:22:00;;;;;;;4.40;2.88;;;24.20;55.50;;;;;;4975044;28;20023;-73
2022/05/19 08:24:26;;;;;;;5.68;3.05;;;24.30;56.50;;;;;;4974979;28;20665;-73
2022/05/19 08:26:52;;;;;;;3.60;2.90;;;24.40;55.00;;;;;;4982434;28;20030;-73
2022/05/19 08:29:19;;;;;;;4.95;2.58;;;24.50;55.40;;;;;;4977290;28;20034;-72
2022/05/19 08:31:45;;;;;;;4.18;2.60;;;24.70;55.80;;;;;;4971448;28;20027;-72
2022/05/19 08:34:13;;;;;;;4.97;2.97;;;24.80;54.80;;;;;;4974530;28;20116;-73
2022/05/19 08:36:44;;;;;;;4.13;2.90;;;24.80;53.50;;;;;;4974165;28;20089;-72
2022/05/19 08:39:14;;;;;;;4.90;3.08;;;24.70;53.90;;;;;;4975307;28;20050;-74
2022/05/19 08:41:48;;;;;;;3.85;2.65;;;24.70;55.40;;;;;;4956591;28;20035;-73
2022/05/19 08:44:22;;;;;;;5.28;2.88;;;24.80;54.60;;;;;;4973942;28;20041;-72
2022/05/19 08:46:51;;;;;;;6.00;3.05;;;24.80;55.30;;;;;;4976103;28;20041;-73
2022/05/19 08:49:22;;;;;;;7.22;3.00;;;25.00;54.50;;;;;;4977596;28;20035;-73
2022/05/19 08:52:06;;;;;;;5.65;3.20;;;25.20;54.40;;;;;;4973507;28;20031;-73
2022/05/19 08:54:33;;;;;;;4.50;2.83;;;25.30;53.30;;;;;;4976918;28;20041;-73
2022/05/19 08:57:12;;;;;;;3.42;2.50;;;25.50;53.80;;;;;;4977325;28;20397;-72
2022/05/19 08:59:49;;;;;;;4.85;3.20;;;25.50;53.50;;;;;;4971358;28;20066;-73
2022/05/19 09:02:27;;;;;;;5.25;2.97;;;25.60;53.20;;;;;;4976135;28;20099;-70
2022/05/19 09:05:05;;;;;;;8.18;3.38;;;25.60;52.60;;;;;;4976871;28;20062;-73
2022/05/19 09:10:51;;;;;;;4.40;3.40;;;25.80;53.30;;;;;;4973262;28;20078;-73
2022/05/19 09:13:23;;;;;;;4.25;3.17;;;26.00;52.80;;;;;;4969631;28;20035;-74
2022/05/19 09:15:50;;;;;;;3.45;2.88;;;26.20;52.80;;;;;;4967029;28;20121;-73
2022/05/19 09:18:20;;;;;;;3.55;3.00;;;26.20;52.10;;;;;;4971628;28;20040;-73
2022/05/19 09:20:55;;;;;;;6.25;3.05;;;26.20;52.90;;;;;;4976340;28;20058;-73
2022/05/19 09:23:23;;;;;;;5.28;2.63;;;26.50;52.30;;;;;;4974626;28;20070;-74
2022/05/19 09:25:54;;;;;;;3.65;2.53;;;26.60;50.70;;;;;;4976793;28;20034;-73
2022/05/19 09:28:20;;;;;;;6.68;2.78;;;26.80;51.70;;;;;;4974640;28;20046;-73
2022/05/19 09:30:46;;;;;;;4.20;2.80;;;26.90;51.10;;;;;;4959281;28;20066;-73
2022/05/19 09:33:18;;;;;;;3.05;2.58;;;27.10;51.50;;;;;;4952764;28;20065;-76
2022/05/19 09:35:54;;;;;;;4.80;2.90;;;27.20;50.00;;;;;;4968995;28;20030;-73
2022/05/19 09:38:34;;;;;;;3.55;2.40;;;27.20;50.30;;;;;;4974233;28;20058;-73
2022/05/19 09:41:05;;;;;;;7.30;3.30;;;27.30;50.30;;;;;;4961508;28;20045;-72
2022/05/19 09:43:36;;;;;;;3.47;2.70;;;27.50;49.40;;;;;;4978076;28;20042;-73
2022/05/19 09:46:14;;;;;;;5.47;2.63;;;27.60;48.20;;;;;;4976144;28;20030;-73
2022/05/19 09:49:01;;;;;;;6.68;2.83;;;27.70;48.40;;;;;;4970781;28;20030;-73
2022/05/19 09:51:40;;;;;;;3.22;2.05;;;27.90;47.10;;;;;;4975842;28;20084;-73
2022/05/19 09:54:06;;;;;;;6.72;2.75;;;28.10;47.60;;;;;;4974020;28;20089;-73
2022/05/19 09:56:48;;;;;;;2.85;2.53;;;28.20;47.90;;;;;;4971113;28;20038;-73
2022/05/19 09:59:23;;;;;;;4.88;3.05;;;28.40;46.90;;;;;;4972251;28;20883;-73
2022/05/19 10:01:50;;;;;;;4.28;2.60;;;28.40;46.90;;;;;;4975333;28;20041;-73
2022/05/19 10:04:26;;;;;;;5.18;2.55;;;28.20;46.20;;;;;;4968778;28;20858;-74
2022/05/19 10:06:58;;;;;;;11.38;3.38;;;28.00;46.40;;;;;;4967649;28;20097;-72
2022/05/19 10:09:30;;;;;;;4.72;2.72;;;28.00;47.50;;;;;;4977159;28;20038;-73
2022/05/19 10:12:08;;;;;;;4.57;2.90;;;28.10;46.30;;;;;;4971472;28;20480;-74
2022/05/19 10:14:35;;;;;;;6.15;2.50;;;28.10;46.80;;;;;;4970997;28;20137;-73
2022/05/19 10:17:25;;;;;;;4.97;2.50;;;28.20;46.50;;;;;;4969261;28;20534;-74
2022/05/19 10:20:17;;;;;;;4.35;2.47;;;28.30;46.40;;;;;;4964938;28;20043;-73
2022/05/19 10:23:07;;;;;;;7.05;2.45;;;28.40;46.30;;;;;;4971365;28;20142;-73
2022/05/19 10:26:21;;;;;;;6.85;2.80;;;28.50;45.70;;;;;;4976303;28;20541;-73
2022/05/19 10:31:57;;;;;;;4.57;2.30;;;30.30;42.90;;;;;;4972013;28;20046;-74
2022/05/19 10:34:55;;;;;;;21.60;3.30;;;30.30;42.50;;;;;;4967228;28;20069;-74
2022/05/19 10:37:46;;;;;;;3.05;2.35;;;29.70;43.30;;;;;;4972435;28;20038;-73
2022/05/19 10:40:28;;;;;;;3.63;2.35;;;29.30;42.70;;;;;;4971415;28;20225;-73
2022/05/19 10:43:13;;;;;;;4.00;2.25;;;29.00;43.00;;;;;;4972604;28;20050;-73
2022/05/19 10:45:46;;;;;;;4.45;2.40;;;28.70;43.50;;;;;;4976954;28;20498;-73
2022/05/19 10:48:40;;;;;;;2.38;2.13;;;28.60;44.70;;;;;;4975630;28;20105;-75
2022/05/19 10:51:13;;;;;;;7.18;3.28;;;28.80;43.40;;;;;;4970474;28;20055;-72
2022/05/19 10:54:18;;;;;;;4.22;2.90;;;29.00;43.90;;;;;;4959363;28;20061;-72
2022/05/19 10:57:08;;;;;;;2.40;2.20;;;29.00;42.80;;;;;;4977121;28;20026;-73
2022/05/19 10:59:47;;;;;;;4.18;2.40;;;29.10;43.10;;;;;;4974863;28;20069;-77
2022/05/19 11:02:18;;;;;;;4.22;2.22;;;29.00;42.50;;;;;;4976354;28;20038;-74
2022/05/19 11:04:44;;;;;;;3.95;2.30;;;29.10;43.30;;;;;;4973965;28;20059;-73
2022/05/19 11:07:15;;;;;;;3.60;2.22;;;29.20;43.50;;;;;;4970512;28;20181;-73
2022/05/19 11:09:55;;;;;;;4.50;2.13;;;29.40;43.40;;;;;;4971704;28;20487;-74
2022/05/19 11:12:29;;;;;;;6.28;2.40;;;29.50;42.20;;;;;;4979774;28;20220;-74
2022/05/19 11:15:25;;;;;;;3.63;2.30;;;29.70;42.60;;;;;;4976986;28;20030;-74
2022/05/19 11:17:56;;;;;;;7.78;2.25;;;29.90;41.70;;;;;;4978976;28;20562;-74
2022/05/19 11:20:33;;;;;;;3.03;1.98;;;29.80;41.70;;;;;;4971602;28;20490;-73
2022/05/19 11:23:15;;;;;;;4.10;2.13;;;29.70;41.60;;;;;;4965651;28;20039;-72
2022/05/19 11:26:28;;;;;;;5.30;2.10;;;29.70;41.50;;;;;;4978470;28;20045;-73
2022/05/19 11:29:09;;;;;;;2.45;2.05;;;29.90;43.30;;;;;;4973592;28;20038;-73
2022/05/19 11:31:55;;;;;;;2.88;2.13;;;29.80;42.00;;;;;;4973422;28;20624;-73
2022/05/19 11:34:43;;;;;;;5.38;2.83;;;29.70;42.20;;;;;;4975593;28;20651;-74
2022/05/19 11:37:32;;;;;;;4.68;2.53;;;29.80;42.90;;;;;;4972181;28;20038;-74
2022/05/19 11:40:25;;;;;;;2.30;2.10;;;29.90;41.30;;;;;;4953605;28;20058;-74
2022/05/19 11:43:12;;;;;;;3.28;2.42;;;29.80;41.50;;;;;;4974474;28;20054;-74
2022/05/19 11:45:40;;;;;;;3.13;2.15;;;29.70;42.20;;;;;;4976296;28;20041;-74
2022/05/19 11:57:40;;;;;;;2.95;2.25;;;29.20;42.30;;;;;;4951816;28;20035;-73
2022/05/19 12:00:08;;;;;;;2.95;2.05;;;29.20;42.60;;;;;;4975465;28;20443;-74
2022/05/19 12:02:57;;;;;;;2.40;2.15;;;29.20;41.50;;;;;;4957279;28;20088;-74
2022/05/19 12:05:50;;;;;;;2.55;2.10;;;29.10;42.00;;;;;;4954345;28;20038;-74
2022/05/19 12:08:29;;;;;;;2.22;2.00;;;29.10;41.50;;;;;;4966884;28;20071;-74
2022/05/19 12:11:19;;;;;;;5.03;2.33;;;29.10;43.10;;;;;;4972718;28;20743;-74
2022/05/19 12:13:51;;;;;;;2.10;1.83;;;29.10;42.90;;;;;;4953966;28;20043;-74
2022/05/19 12:17:09;;;;;;;3.65;1.92;;;29.20;42.10;;;;;;4972105;28;20113;-74
2022/05/19 12:19:52;;;;;;;3.33;1.83;;;29.20;41.90;;;;;;4957188;28;20034;-74
2022/05/19 12:22:39;;;;;;;5.45;2.00;;;29.10;41.60;;;;;;4973302;28;20097;-74
2022/05/19 12:25:13;;;;;;;4.90;2.35;;;29.10;41.70;;;;;;4972622;28;20034;-74
2022/05/19 12:27:52;;;;;;;3.90;2.10;;;29.00;41.90;;;;;;4978135;28;20065;-74
2022/05/19 12:33:35;;;;;;;3.75;1.70;;;29.20;42.90;;;;;;4979707;28;20038;-74
2022/05/19 12:36:16;;;;;;;3.00;2.20;;;29.30;41.50;;;;;;4974696;28;20062;-74
2022/05/19 12:38:44;;;;;;;4.43;1.85;;;29.30;41.40;;;;;;4973805;28;20053;-74
2022/05/19 12:41:26;;;;;;;2.83;1.80;;;29.20;41.40;;;;;;4951550;28;20035;-74
2022/05/19 12:43:53;;;;;;;2.88;1.60;;;29.30;41.20;;;;;;4966620;28;20090;-74
2022/05/19 12:46:33;;;;;;;2.67;1.90;;;29.40;40.20;;;;;;4977629;28;20110;-74
2022/05/19 12:49:17;;;;;;;4.35;1.63;;;29.40;41.40;;;;;;4954052;28;20841;-74
2022/05/19 12:51:59;;;;;;;2.08;1.50;;;29.40;40.40;;;;;;4975646;28;20770;-74
2022/05/19 12:54:28;;;;;;;5.93;2.00;;;29.50;41.30;;;;;;4973029;28;21008;-74
2022/05/19 12:57:19;;;;;;;3.40;2.10;;;29.50;39.70;;;;;;4964957;28;20651;-74
2022/05/19 12:59:51;;;;;;;3.70;1.90;;;29.30;39.60;;;;;;4973305;28;20026;-74
2022/05/19 13:02:24;;;;;;;4.38;2.03;;;29.20;41.40;;;;;;4956146;28;20491;-74
2022/05/19 13:05:01;;;;;;;3.05;1.70;;;29.40;40.50;;;;;;4975062;28;20108;-74
2022/05/19 13:07:43;;;;;;;10.48;2.22;;;29.40;40.30;;;;;;4973863;28;20415;-74
2022/05/19 13:10:22;;;;;;;2.50;1.58;;;29.40;40.40;;;;;;4976224;28;20085;-74
2022/05/19 13:12:57;;;;;;;3.88;1.95;;;29.30;40.70;;;;;;4950867;28;20125;-74
2022/05/19 13:15:45;;;;;;;2.88;1.80;;;29.20;40.50;;;;;;4968635;28;20035;-74
2022/05/19 13:18:12;;;;;;;2.38;1.80;;;29.20;41.30;;;;;;4972077;28;20899;-74
2022/05/19 13:20:40;;;;;;;2.17;1.80;;;29.10;40.30;;;;;;4958060;28;20402;-73
2022/05/19 13:23:27;;;;;;;4.10;1.42;;;29.00;40.30;;;;;;4972073;28;20045;-74
2022/05/19 13:26:04;;;;;;;3.47;2.00;;;29.10;40.70;;;;;;4968444;28;20035;-74
2022/05/19 13:31:22;;;;;;;4.75;1.70;;;29.10;39.40;;;;;;4971195;28;20145;-73
2022/05/19 13:33:53;;;;;;;3.90;1.70;;;29.00;39.10;;;;;;4969164;28;20023;-73
2022/05/19 13:36:38;;;;;;;5.20;1.67;;;28.90;38.80;;;;;;4975613;28;20038;-73
2022/05/19 13:39:07;;;;;;;2.47;1.65;;;28.90;40.00;;;;;;4969576;28;20027;-72
2022/05/19 13:41:34;;;;;;;3.40;1.38;;;29.00;39.70;;;;;;4973686;28;20038;-73
2022/05/19 13:44:01;;;;;;;4.53;1.90;;;29.00;39.60;;;;;;4969033;28;20785;-72